ADDS METAR Data INFO
IDs: Format: Raw Decoded Include TAF

Data at: 2254 UTC 11 Dec 2017

PFKT 112156Z AUTO 02033G40KT 1/4SM +SN FZFG OVC003 M07/M09 A2938 RMK AO2 PK WND 02044/2142 SLP949 P0000 T10721089 FZRANO
PFKT 112056Z AUTO 02032G43KT 1/4SM SN FZFG BKN003 BKN008 OVC055 M07/M09 A2937 RMK AO2 PK WND 02043/2056 CIG 002V007 SLP945 P0000 60000 T10721089 56004 FZRANO
PFKT 112051Z AUTO 02036G40KT 1/4SM SN FZFG SCT003 BKN008 OVC055 M07/M09 A2937 RMK AO2 PK WND 01042/2015 CIG 006V009 P0000 FZRANO
PFKT 112050Z AUTO 02035G40KT 1/4SM SN FZFG BKN003 BKN008 OVC055 M07/M09 A2937 RMK AO2 PK WND 01042/2015 CIG 003V007 P0000 FZRANO
PFKT 112029Z AUTO 02032G39KT 1/4SM SN FZFG FEW008 OVC055 M07/M09 A2937 RMK AO2 PK WND 01042/2015 P0000 FZRANO
PFKT 112015Z AUTO 01036G42KT 3/4SM -SN BR BKN055 OVC110 M07/M09 A2937 RMK AO2 PK WND 01042/2015 P0000 FZRANO
PFKT 111956Z AUTO 01035G39KT 1 1/4SM -SN BR SCT055 BKN110 M07/M09 A2937 RMK AO2 PK WND 01039/1956 SLP947 P0000 T10721094 FZRANO
PFKT 111953Z AUTO 01031G38KT 1 1/4SM -SN BR FEW055 SCT110 M07/M09 A2938 RMK AO2 PK WND 01039/1916 P0000 FZRANO
PFKT 111935Z AUTO 01035G38KT 1SM -SN BR CLR M07/M09 A2937 RMK AO2 PK WND 01039/1916 P0000 FZRANO
PFKT 111856Z AUTO 02030G36KT 1 1/2SM -SN BR FEW060 SCT120 M07/M09 A2938 RMK AO2 PK WND 01042/1811 SLP949 P0000 T10721089 FZRANO
PFKT 111846Z AUTO 02031G40KT 1 1/4SM -SN BR SCT060 BKN120 M07/M09 A2937 RMK AO2 PK WND 01042/1811 P0000 FZRANO
PFKT 111830Z AUTO 02032G37KT 1SM -SN BR FEW005 SCT008 BKN060 M07/M09 A2937 RMK AO2 PK WND 01042/1811 P0000 FZRANO
PFKT 111815Z AUTO 01033G42KT 3/4SM -SN BR BKN007 OVC010 M07/M09 A2937 RMK AO2 PK WND 01042/1811 CIG 003V009 P0000 FZRANO
PFKT 111756Z AUTO 02035G40KT 1/2SM SN FZFG FEW004 BKN010 OVC046 M07/M09 A2936 RMK AO2 PK WND 01043/1743 CIG 007V012 SLP944 P0000 60000 T10721089 11067 21083 55006 FZRANO
PFKT 111747Z AUTO 01033G43KT 1/2SM SN FZFG BKN010 OVC015 M07/M09 A2937 RMK AO2 PK WND 01043/1743 CIG 007V012 P0000 FZRANO
PFKT 111716Z AUTO 01032G39KT 3/4SM -SN BR BKN013 BKN022 OVC027 M07/M08 A2936 RMK AO2 PK WND 02040/1707 P0000 FZRANO
PFKT 111656Z AUTO 01034G42KT 1/2SM SN FZFG SCT012 BKN019 OVC025 M07/M08 A2936 RMK AO2 PK WND 01042/1651 SLP942 P0000 T10721083 FZRANO
PFKT 111641Z AUTO 01030G41KT 1/2SM SN FZFG BKN012 BKN018 OVC024 M07/M08 A2936 RMK AO2 PK WND 01041/1635 P0000 FZRANO
PFKT 111614Z AUTO 01036G41KT 1/4SM +SN FZFG BKN014 BKN020 OVC050 M07/M09 A2937 RMK AO2 PK WND 01041/1605 P0000 FZRANO
PFKT 111605Z AUTO 01036G41KT 1/2SM SN FZFG SCT018 BKN029 OVC048 M07/M09 A2937 RMK AO2 PK WND 01041/1605 P0000 FZRANO
PFKT 111559Z AUTO 01032G36KT 3/4SM -SN BR FEW029 SCT036 OVC048 M07/M09 A2938 RMK AO2 PK WND 02036/1557 PRESFR P0000 FZRANO
PFKT 111556Z AUTO 01031G36KT 1 1/4SM -SN BR SCT035 OVC048 M07/M09 A2938 RMK AO2 PK WND 01039/1513 SLP950 P0000 T10721094 FZRANO
PFKT 111554Z AUTO 01033G36KT 1 1/4SM -SN BR FEW037 OVC050 M07/M09 A2938 RMK AO2 PK WND 01039/1513 PRESFR P0000 FZRANO
PFKT 111524Z AUTO 01028G37KT 2 1/2SM -SN BR SCT016 BKN060 OVC110 M08/M10 A2940 RMK AO2 PK WND 01039/1513 VIS 1 1/2V3 P0000 FZRANO
PFKT 111517Z AUTO 01032G39KT 2SM -SN BR BKN016 OVC110 M08/M10 A2940 RMK AO2 PK WND 01039/1513 P0000 FZRANO
PFKT 111504Z AUTO 01031G38KT 1 1/2SM -SN BR OVC014 M08/M10 A2940 RMK AO2 PK WND 01038/1458 P0000 FZRANO
PFKT 111456Z AUTO 01032G36KT 1SM -SN BR OVC014 M08/M10 A2940 RMK AO2 PK WND 01037/1452 SLP957 P0000 60000 T10781100 58024 FZRANO
PFKT 111446Z AUTO 01030G37KT 1SM -SN BR OVC012 M08/M09 A2941 RMK AO2 PK WND 01037/1442 P0000 FZRANO
PFKT 111425Z AUTO 01030KT 1/2SM SN FZFG OVC012 M08/M09 A2942 RMK AO2 PK WND 01036/1359 P0000 FZRANO
PFKT 111411Z AUTO 01031KT 1/4SM +SN FZFG BKN012 BKN017 OVC024 M08/M10 A2942 RMK AO2 PK WND 01036/1359 P0000 FZRANO
PFKT 111403Z AUTO 01032G37KT 1/2SM SN FZFG SCT014 BKN019 OVC024 M08/M10 A2942 RMK AO2 PK WND 01036/1359 P0000 FZRANO
PFKT 111356Z AUTO 01031G37KT 1SM -SN BR FEW018 OVC022 M08/M10 A2943 RMK AO2 PK WND 01038/1343 SLP965 P0000 T10781100 FZRANO
PFKT 111347Z AUTO 01029G38KT 1 1/4SM -SN OVC022 M08/M11 A2943 RMK AO2 PK WND 01038/1343 P0000 FZRANO
PFKT 111320Z AUTO 36027KT 3/4SM -SN BR OVC018 M08/M10 A2944 RMK AO2 PK WND 01033/1318 P0000 FZRANO
PFKT 111311Z AUTO 01029KT 1SM -SN BR OVC018 M08/M10 A2944 RMK AO2 PK WND 01033/1309 P0000 FZRANO
PFKT 111303Z AUTO 01028KT 3/4SM -SN BR OVC018 M08/M10 A2945 RMK AO2 PK WND 01032/1303 P0000 FZRANO
PFKT 111256Z AUTO 01030G34KT 1/2SM SN FZFG OVC018 M08/M10 A2945 RMK AO2 PK WND 01038/1217 SLP974 P0000 T10831100 FZRANO
PFKT 111156Z AUTO 01033KT 1/2SM SN FZFG OVC022 M08/M11 A2947 RMK AO2 PK WND 01038/1149 SLP981 P0000 60000 T10831106 11083 21094 58025 FZRANO
PFKT 111149Z AUTO 01034G37KT 1/2SM SN FZFG SCT019 BKN024 OVC038 M08/M11 A2948 RMK AO2 PK WND 01038/1149 PRESFR P0000 FZRANO
PFKT 111140Z AUTO 36030G37KT 3/4SM -SN BR BKN022 BKN038 OVC055 M08/M11 A2949 RMK AO2 PK WND 01037/1138 P0000 FZRANO
PFKT 111138Z AUTO 01031G37KT 1SM -SN BR SCT022 BKN027 OVC055 M08/M11 A2949 RMK AO2 PK WND 01037/1138 P0000 FZRANO
PFKT 111128Z AUTO 01026KT 2SM -SN BR BKN038 OVC055 M08/M11 A2950 RMK AO2 PK WND 01036/1106 VIS 1 1/4V3 P0000 FZRANO
PFKT 111117Z AUTO 01029G34KT 1 1/4SM -SN BR FEW038 OVC055 M08/M11 A2950 RMK AO2 PK WND 01036/1106 P0000 FZRANO
PFKT 111056Z AUTO 36028G38KT 3/4SM -SN BR OVC055 M08/M11 A2950 RMK AO2 PK WND 01040/1020 SLP991 P0000 T10831106 FZRANO
PFKT 111038Z AUTO 36029G35KT 3/4SM -SN BR FEW010 SCT029 OVC055 M08/M11 A2951 RMK AO2 PK WND 01040/1020 P0000 FZRANO
PFKT 111029Z AUTO 36032G40KT 1/2SM SN FZFG SCT010 BKN018 OVC060 M09/M11 A2950 RMK AO2 PK WND 01040/1020 P0000 FZRANO
PFKT 111016Z AUTO 01034G39KT 1/4SM +SN FZFG BKN010 OVC013 M09/M10 A2950 RMK AO2 PK WND 01039/1015 PRESFR P0000 FZRANO
PFKT 111005Z AUTO 01024G31KT 1/2SM SN FZFG OVC010 M09/M10 A2952 RMK AO2 PK WND 01031/1005 P0000 FZRANO
PFKT 110956Z AUTO 36022G27KT 3/4SM -SN BR OVC008 M09/M10 A2954 RMK AO2 PK WND 01038/0928 SLP002 P0000 T10891100 FZRANO
PFKT 110907Z AUTO 01028G34KT 3/4SM -SN BR OVC008 M09/M11 A2955 RMK AO2 PK WND 01034/0904 CIG 007V012 P0000 FZRANO
PFKT 110856Z AUTO 01029G35KT 1/2SM SN FZFG OVC008 M09/M11 A2955 RMK AO2 PK WND 02036/0824 CIG 005V010 SLP006 P0000 60000 T10891106 410891100 58007 FZRANO
PFKT 110831Z AUTO 02024G36KT 1/4SM +SN FZFG OVC006 M09/M11 A2956 RMK AO2 PK WND 02036/0824 P0000 FZRANO
PFKT 110821Z AUTO 01025G30KT 1/2SM SN FZFG OVC006 M09/M11 A2956 RMK AO2 PK WND 01030/0820 CIG 004V009 P0000 FZRANO
PFKT 110756Z AUTO 02027G34KT 1/4SM +SN FZFG OVC006 M09/M11 A2957 RMK AO2 PK WND 02047/0708 CIG 004V009 SLP015 P0000 T10941106 FZRANO
PFKT 110656Z AUTO 02042G46KT 1/4SM +SN FZFG OVC009 M09/M11 A2954 RMK AO2 PK WND 02046/0656 CIG 005V011 PRESFR SLP004 P0000 T10941111 FZRANO
PFKT 110648Z AUTO 02038G45KT 1/4SM +SN FZFG OVC009 M09/M11 A2955 RMK AO2 PK WND 02046/0559 CIG 005V011 PRESFR P0000 FZRANO
PFKT 110615Z AUTO 01034G43KT 1/2SM SN FZFG OVC007 M09/M11 A2958 RMK AO2 PK WND 02046/0559 CIG 004V011 P0000 FZRANO
PFKT 110556Z AUTO 02041G49KT 1/4SM +SN FZFG OVC005 M09/M11 A2957 RMK AO2 PK WND 02050/0541 SLP013 P0000 60000 T10941106 58032 FZRANO
PFKT 110356Z AUTO 01038G46KT 1/4SM +SN FZFG OVC005 M09/M11 A2963 RMK AO2 PK WND 02046/0352 SLP035 P0000 T10941106 FZRANO
PFKT 110308Z AUTO 02038G42KT 1/4SM +SN FZFG OVC005 M09/M11 A2966 RMK AO2 PK WND 02042/0308 CIG 003V008 P0000 FZRANO
PFKT 110256Z AUTO 01037G43KT 1/4SM +SN FZFG OVC007 M09/M11 A2966 RMK AO2 PK WND 01045/0234 CIG 004V008 SLP045 P0000 60000 T10941106 56033 FZRANO
PFKT 110156Z AUTO 02036G42KT M1/4SM +SN FZFG OVC005 M09/M11 A2968 RMK AO2 PK WND 02042/0155 CIG 003V009 SLP050 P0000 T10941106 FZRANO
PFKT 110109Z AUTO 02026G36KT M1/4SM +SN FZFG OVC005 M09/M11 A2970 RMK AO2 PK WND 02036/0107 CIG 003V009 P0000 FZRANO
PFKT 110056Z AUTO 02027G34KT M1/4SM +SN FZFG OVC007 M09/M11 A2970 RMK AO2 PK WND 02034/0056 CIG 005V011 PRESFR SLP060 P0000 T10891106 FZRANO
PFKT 110045Z AUTO 02021G29KT 1/4SM SN FZFG OVC009 M09/M11 A2973 RMK AO2 PK WND 01029/0045 CIG 005V011 PRESFR P0000 FZRANO
PFKT 110035Z AUTO 01010G20KT 1/2SM -SN FZFG OVC009 M09/M11 A2974 RMK AO2 CIG 006V011 P0000 FZRANO
PFKT 110009Z AUTO 01008KT 310V110 3/4SM -SN BR OVC009 M09/M11 A2976 RMK AO2 CIG 006V013 P0000 FZRANO
PFKT 102356Z AUTO 22007KT 3/4SM -SN BR OVC011 M09/M11 A2976 RMK AO2 CIG 008V014 SLP078 P0000 60000 T10891106 11089 21094 58007 FZRANO
PFKT 102334Z AUTO 18007G15KT 130V220 3/4SM -SN BR OVC011 M09/M11 A2977 RMK AO2 P0000 FZRANO
PFKT 102256Z AUTO VRB06G14KT 3/4SM -SN BR OVC009 M09/M11 A2978 RMK AO2 PK WND 02028/2211 CIG 007V013 SLP086 P0000 T10891106 FZRANO
PFKT 102156Z AUTO 02021KT 1/4SM SN FZFG OVC009 M09/M11 A2978 RMK AO2 PK WND 01033/2058 SLP085 P0000 T10891106 FZRANO
PFKT 102151Z AUTO 02022G25KT 1/4SM SN FZFG OVC009 M09/M11 A2978 RMK AO2 PK WND 01033/2058 P0000 FZRANO
PFKT 102139Z AUTO 02013KT 1/2SM SN FZFG OVC009 M09/M11 A2979 RMK AO2 PK WND 01033/2058 CIG 007V010 P0000 FZRANO
PFKT 102056Z AUTO 01029G33KT 1/4SM SN FZFG OVC007 M09/M11 A2977 RMK AO2 PK WND 01038/2023 CIG 004V010 SLP083 P0000 60000 T10941111 55005 FZRANO
PFKT 102025Z AUTO 01031G38KT 1/4SM +SN FZFG OVC007 M09/M11 A2977 RMK AO2 PK WND 01038/2023 CIG 005V009 P0000 FZRANO
PFKT 101956Z AUTO 01031G38KT 1/2SM SN FZFG OVC007 M09/M11 A2977 RMK AO2 PK WND 01039/1946 CIG 004V010 SLP080 P0000 T10941111 FZRANO
PFKT 101924Z AUTO 01032G36KT 3/4SM -SN BR BKN007 OVC011 M09/M12 A2977 RMK AO2 PK WND 01036/1922 CIG 004V009 P0000 FZRANO
PFKT 101914Z AUTO 01029KT 1SM -SN BR OVC009 M09/M12 A2978 RMK AO2 PK WND 36035/1858 CIG 004V011 P0000 FZRANO
PFKT 101856Z AUTO 36028G34KT 3/4SM -SN BR OVC009 M09/M12 A2979 RMK AO2 PK WND 01035/1759 CIG 006V012 SLP089 P0000 T10941117 FZRANO
PFKT 101845Z AUTO 36030G33KT 1SM -SN BR OVC007 M09/M12 A2980 RMK AO2 PK WND 01035/1759 CIG 004V012 P0000 FZRANO
PFKT 101838Z AUTO 01030KT 1 1/4SM -SN BR OVC007 M09/M12 A2980 RMK AO2 PK WND 01035/1759 CIG 004V013 P0000 FZRANO
PFKT 101756Z AUTO 36030KT 1 1/2SM -SN BR OVC010 M09/M12 A2979 RMK AO2 PK WND 01036/1658 CIG 006V013 SLP089 P0000 60000 T10941117 11094 21100 50001 FZRANO
PFKT 101750Z AUTO 36031KT 1 1/4SM -SN BR OVC010 M09/M12 A2979 RMK AO2 PK WND 01036/1658 CIG 006V011 P0000 FZRANO
PFKT 101725Z AUTO 01031KT 3/4SM -SN BR OVC010 M09/M12 A2980 RMK AO2 PK WND 01036/1658 CIG 006V012 P0000 FZRANO
PFKT 101708Z AUTO 01030G34KT 1SM -SN BR OVC010 M09/M12 A2980 RMK AO2 PK WND 01036/1658 VIS 3/4V1 1/2 CIG 007V012 P0000 FZRANO
PFKT 101656Z AUTO 01029G36KT 3/4SM -SN BR OVC010 M09/M12 A2980 RMK AO2 PK WND 36041/1558 CIG 006V011 SLP092 P0000 T10941117 FZRANO
PFKT 101653Z AUTO 01032KT 1/2SM SN FZFG OVC010 M09/M12 A2980 RMK AO2 PK WND 36041/1558 CIG 006V012 P0000 FZRANO
PFKT 101622Z AUTO 36032KT 1/2SM SN FZFG OVC008 M10/M12 A2980 RMK AO2 PK WND 36041/1558 CIG 005V010 P0000 FZRANO
PFKT 101556Z AUTO 01037G41KT 1/4SM +SN FZFG OVC008 M10/M12 A2979 RMK AO2 PK WND 01043/1539 CIG 006V012 SLP087 P0000 T11001117 FZRANO
PFKT 101554Z AUTO 01037G41KT 1/4SM +SN FZFG OVC008 M10/M12 A2979 RMK AO2 PK WND 01043/1539 CIG 006V012 P0000 FZRANO
PFKT 101456Z AUTO 36034G40KT 1/4SM +SN FZFG FEW005 OVC011 M10/M12 A2979 RMK AO2 PK WND 36043/1427 SLP090 P0000 60000 T11001117 56005 FZRANO
PFKT 101442Z AUTO 36035G40KT 1/4SM +SN FZFG SCT005 OVC011 M10/M12 A2980 RMK AO2 PK WND 36043/1427 CIG 009V013 P0000 FZRANO
PFKT 101430Z AUTO 36034G43KT 1/4SM +SN FZFG BKN005 OVC011 M10/M12 A2980 RMK AO2 PK WND 36043/1427 CIG 003V009 P0000 FZRANO
PFKT 101356Z AUTO 36036G41KT 1/4SM +SN FZFG OVC009 M10/M12 A2980 RMK AO2 PK WND 01044/1300 CIG 005V012 SLP092 P0000 T11001117 FZRANO
PFKT 101335Z AUTO 01034G40KT 1/4SM +SN FZFG OVC009 M10/M12 A2980 RMK AO2 PK WND 01044/1300 CIG 006V012 P0000 FZRANO
PFKT 101256Z AUTO 01036G42KT 1/4SM +SN FZFG OVC011 M10/M12 A2981 RMK AO2 PK WND 01042/1256 SLP095 P0000 T11001117 FZRANO
PFKT 101243Z AUTO 01033G40KT 1/4SM +SN FZFG OVC011 M10/M12 A2982 RMK AO2 PK WND 01040/1237 P0000 FZRANO
PFKT 101228Z AUTO 01034G39KT 1/4SM +SN FZFG OVC009 M10/M12 A2982 RMK AO2 PK WND 36040/1226 P0000 FZRANO
PFKT 101156Z AUTO 01032G36KT 1/2SM SN FZFG OVC009 M10/M12 A2984 RMK AO2 PK WND 01036/1156 SLP106 P0000 60000 T11001117 11094 21100 58011 FZRANO
PFKT 101132Z AUTO 01029G33KT 1/2SM SN FZFG OVC009 M10/M12 A2985 RMK AO2 PK WND 01033/1131 P0000 FZRANO
PFKT 101124Z AUTO 01025G29KT 3/4SM -SN BR OVC009 M10/M12 A2986 RMK AO2 PK WND 01029/1124 CIG 008V013 PRESFR P0000 FZRANO
PFKT 101118Z AUTO 01023G27KT 1SM -SN BR OVC011 M10/M12 A2987 RMK AO2 PK WND 01027/1118 CIG 008V013 P0000 FZRANO
PFKT 101103Z AUTO 01021G25KT 1 1/2SM -SN BR BKN011 OVC017 M10/M12 A2988 RMK AO2 P0000 FZRANO
PFKT 101056Z AUTO 01014G23KT 2SM -SN BR BKN009 OVC018 M10/M12 A2989 RMK AO2 PK WND 02031/1016 CIG 007V014 SLP121 P0000 T11001122 FZRANO